Time;durP1;ratioP1;P1;durP2;ratioP2;P2;SDS_P1;SDS_P2;PMS_P1;PMS_P2;Temp;Humidity;BMP_temperature;BMP_pressure;BME280_temperature;BME280_humidity;BME280_pressure;Samples;Min_cycle;Max_cycle;Signal;HPM_P1;HPM_P2
2021/11/16 00:01:56;;;;;;;;;;;;;;;11.97;57.34;102107.88;4158216;28;19955;-59
2021/11/16 00:03:58;;;;;;;;;;;;;;;11.97;57.28;102105.25;4158183;28;19959;-59
2021/11/16 00:06:00;;;;;;;;;;;;;;;11.96;57.46;102103.47;4157897;28;19983;-59
2021/11/16 00:08:02;;;;;;;;;;;;;;;11.96;57.50;102106.09;4158100;28;19923;-59
2021/11/16 00:10:06;;;;;;;;;;;;;;;11.95;57.56;102107.00;4158241;28;19940;-59
2021/11/16 00:12:08;;;;;;;;;;;;;;;11.95;57.46;102110.50;4158158;28;19922;-59
2021/11/16 00:14:10;;;;;;;;;;;;;;;11.79;57.25;102088.81;4158140;28;19956;-59
2021/11/16 00:16:12;;;;;;;;;;;;;;;11.94;57.29;102107.88;4157902;28;19956;-59
2021/11/16 00:18:17;;;;;;;;;;;;;;;11.94;57.55;102103.47;4158040;28;20201;-59
2021/11/16 00:20:19;;;;;;;;;;;;;;;11.94;57.65;102097.34;4157939;28;19925;-59
2021/11/16 00:22:22;;;;;;;;;;;;;;;11.93;57.42;102099.13;4157790;28;19917;-59
2021/11/16 00:26:47;;;;;;;;;;;;;;;11.92;57.48;102089.47;4172129;28;19917;-60
2021/11/16 00:28:49;;;;;;;;;;;;;;;11.93;57.53;102090.34;4148731;28;19917;-60
2021/11/16 00:30:53;;;;;;;;;;;;;;;11.92;57.33;102086.84;4141670;28;19918;-60
2021/11/16 00:32:55;;;;;;;;;;;;;;;11.92;57.39;102092.13;4157600;28;19988;-60
2021/11/16 00:34:57;;;;;;;;;;;;;;;11.91;57.64;102079.81;4157667;28;19924;-59
2021/11/16 00:36:59;;;;;;;;;;;;;;;11.75;57.23;102050.25;4157468;28;19918;-59
2021/11/16 00:39:01;;;;;;;;;;;;;;;11.91;57.32;102071.91;4157706;28;19951;-60
2021/11/16 00:41:04;;;;;;;;;;;;;;;11.91;57.25;102071.06;4157875;28;19922;-59
2021/11/16 00:43:09;;;;;;;;;;;;;;;11.90;57.31;102064.91;4157433;28;19917;-60
2021/11/16 00:45:13;;;;;;;;;;;;;;;11.89;57.54;102060.53;4157624;28;19963;-60
2021/11/16 00:47:15;;;;;;;;;;;;;;;11.89;57.49;102057.88;4157444;28;19952;-60
2021/11/16 00:49:17;;;;;;;;;;;;;;;11.89;57.36;102060.53;4157698;28;20148;-60
2021/11/16 00:51:19;;;;;;;;;;;;;;;11.90;57.50;102056.13;4157798;28;19918;-60
2021/11/16 00:53:22;;;;;;;;;;;;;;;11.89;57.28;102054.41;4157453;28;20146;-60
2021/11/16 00:55:25;;;;;;;;;;;;;;;11.89;57.39;102055.25;4157598;28;19918;-60
2021/11/16 00:57:27;;;;;;;;;;;;;;;11.88;57.28;102056.13;4157046;28;19917;-60
2021/11/16 00:59:29;;;;;;;;;;;;;;;11.88;57.48;102050.00;4157613;28;19918;-59
2021/11/16 01:01:31;;;;;;;;;;;;;;;11.87;57.51;102049.16;4157406;28;20087;-59
2021/11/16 01:03:33;;;;;;;;;;;;;;;11.87;57.43;102046.53;4157043;28;19918;-58
2021/11/16 01:05:35;;;;;;;;;;;;;;;11.88;57.44;102047.38;4157245;28;19918;-59
2021/11/16 01:07:38;;;;;;;;;;;;;;;11.88;57.55;102044.75;4157250;28;19918;-59
2021/11/16 01:09:41;;;;;;;;;;;;;;;11.87;57.50;102045.63;4157164;28;19921;-60
2021/11/16 01:11:43;;;;;;;;;;;;;;;11.86;57.46;102046.53;4157361;28;19921;-60
2021/11/16 01:13:46;;;;;;;;;;;;;;;11.85;57.39;102045.66;4157096;28;19924;-60
2021/11/16 01:15:51;;;;;;;;;;;;;;;11.87;57.08;102053.53;4172668;28;19983;-59
2021/11/16 01:17:53;;;;;;;;;;;;;;;11.86;57.36;102047.41;4156944;28;19981;-59
2021/11/16 01:19:55;;;;;;;;;;;;;;;11.85;57.47;102043.03;4157172;28;19924;-59
2021/11/16 01:21:57;;;;;;;;;;;;;;;11.83;57.48;102040.44;4157104;28;20140;-60
2021/11/16 01:23:59;;;;;;;;;;;;;;;11.83;57.51;102040.44;4157067;28;19940;-60
2021/11/16 01:26:02;;;;;;;;;;;;;;;11.83;57.42;102035.16;4156936;28;19924;-60
2021/11/16 01:28:10;;;;;;;;;;;;;;;11.83;57.31;102032.53;4156954;28;19925;-60
2021/11/16 01:30:17;;;;;;;;;;;;;;;11.83;57.50;102031.66;4156843;28;19925;-60
2021/11/16 01:33:03;;;;;;;;;;;;;;;11.86;57.42;102033.34;4156866;28;20145;-60
2021/11/16 01:34:47;;;;;;;;;;;;;;;11.83;57.51;102029.91;4157971;28;19939;-60
2021/11/16 01:36:50;;;;;;;;;;;;;;;11.84;57.44;102030.75;4156900;28;19956;-59
2021/11/16 01:38:55;;;;;;;;;;;;;;;11.84;57.52;102041.28;4156510;28;19925;-59
2021/11/16 01:40:57;;;;;;;;;;;;;;;11.83;57.40;102043.06;4156818;28;19963;-60
2021/11/16 01:42:59;;;;;;;;;;;;;;;11.84;57.30;102046.56;4156757;28;19939;-60
2021/11/16 01:45:02;;;;;;;;;;;;;;;11.83;57.50;102042.19;4156565;28;19917;-59
2021/11/16 01:47:04;;;;;;;;;;;;;;;11.83;57.49;102043.06;4156536;28;19932;-59
2021/11/16 01:49:08;;;;;;;;;;;;;;;11.84;57.28;102038.66;4156499;28;19929;-59
2021/11/16 01:51:10;;;;;;;;;;;;;;;11.83;57.49;102045.72;4146082;28;19918;-59
2021/11/16 01:53:13;;;;;;;;;;;;;;;11.83;57.54;102050.09;4156518;28;19917;-61
2021/11/16 01:55:16;;;;;;;;;;;;;;;11.82;57.45;102048.34;4156240;28;19940;-60
2021/11/16 01:57:18;;;;;;;;;;;;;;;11.82;57.53;102046.59;4156464;28;19940;-59
2021/11/16 01:59:20;;;;;;;;;;;;;;;11.82;57.47;102049.25;4156303;28;20316;-59
2021/11/16 02:01:22;;;;;;;;;;;;;;;11.82;57.28;102051.00;4156426;28;19924;-59
2021/11/16 02:03:24;;;;;;;;;;;;;;;11.82;57.47;102040.44;4156269;28;19921;-59
2021/11/16 02:05:40;;;;;;;;;;;;;;;11.82;57.42;102041.34;4156149;28;19925;-59
2021/11/16 02:07:46;;;;;;;;;;;;;;;11.81;57.50;102034.31;4156228;28;20228;-59
2021/11/16 02:09:48;;;;;;;;;;;;;;;11.82;57.70;102032.53;4155751;28;19921;-59
2021/11/16 02:11:50;;;;;;;;;;;;;;;11.82;57.26;102037.81;4156467;28;19972;-59
2021/11/16 02:13:53;;;;;;;;;;;;;;;11.81;57.29;102030.78;4156336;28;19924;-59
2021/11/16 02:15:55;;;;;;;;;;;;;;;11.81;57.48;102036.06;4156016;28;19921;-59
2021/11/16 02:17:57;;;;;;;;;;;;;;;11.81;57.49;102036.06;4156157;28;19924;-59
2021/11/16 02:19:59;;;;;;;;;;;;;;;11.81;57.43;102033.44;4156085;28;19928;-59
2021/11/16 02:22:01;;;;;;;;;;;;;;;11.81;57.48;102028.16;4156120;28;19917;-59
2021/11/16 02:24:04;;;;;;;;;;;;;;;11.81;57.48;102030.78;4156217;28;19917;-59
2021/11/16 02:26:07;;;;;;;;;;;;;;;11.79;57.36;102025.56;4155851;28;20206;-59
2021/11/16 02:28:09;;;;;;;;;;;;;;;11.80;57.29;102026.44;4156034;28;20297;-59
2021/11/16 02:30:11;;;;;;;;;;;;;;;11.80;57.25;102029.09;4155928;28;19918;-59
2021/11/16 02:32:13;;;;;;;;;;;;;;;11.80;57.41;102023.81;4156049;28;19917;-59
2021/11/16 02:34:15;;;;;;;;;;;;;;;11.80;57.27;102026.44;4171310;28;19917;-59
2021/11/16 02:36:17;;;;;;;;;;;;;;;11.80;57.43;102026.44;4155919;28;19918;-59
2021/11/16 02:38:19;;;;;;;;;;;;;;;11.80;57.17;102023.81;4156020;28;19917;-59
2021/11/16 02:40:22;;;;;;;;;;;;;;;11.79;57.28;102029.97;4156051;28;19917;-59
2021/11/16 02:42:25;;;;;;;;;;;;;;;11.80;57.37;102031.72;4152406;28;19917;-59
2021/11/16 02:44:27;;;;;;;;;;;;;;;11.78;57.38;102026.47;4156162;28;19924;-59
2021/11/16 02:46:30;;;;;;;;;;;;;;;11.79;57.47;102024.72;4155735;28;19917;-58
2021/11/16 02:48:33;;;;;;;;;;;;;;;11.79;57.47;102027.34;4155950;28;20252;-58
2021/11/16 02:50:35;;;;;;;;;;;;;;;11.78;57.25;102026.47;4155982;28;19918;-59
2021/11/16 02:52:37;;;;;;;;;;;;;;;11.79;57.48;102019.44;4155878;28;20210;-59
2021/11/16 02:54:40;;;;;;;;;;;;;;;11.79;57.40;102022.06;4156142;28;19971;-59
2021/11/16 02:56:42;;;;;;;;;;;;;;;11.79;57.10;102024.72;4155639;28;20159;-59
2021/11/16 02:58:44;;;;;;;;;;;;;;;11.79;57.27;102019.44;4155857;28;19924;-59
2021/11/16 03:00:50;;;;;;;;;;;;;;;11.78;57.22;102018.56;4155931;28;19918;-58
2021/11/16 03:02:52;;;;;;;;;;;;;;;11.78;57.41;102021.19;4155493;28;19917;-58
2021/11/16 03:04:54;;;;;;;;;;;;;;;11.78;57.41;102010.66;4139729;28;19918;-58
2021/11/16 03:06:56;;;;;;;;;;;;;;;11.78;57.44;102010.66;4146653;28;20197;-58
2021/11/16 03:08:58;;;;;;;;;;;;;;;11.78;57.44;102013.28;4170874;28;19924;-58
2021/11/16 03:11:04;;;;;;;;;;;;;;;11.78;57.44;102009.78;4155829;28;19963;-58
2021/11/16 03:13:06;;;;;;;;;;;;;;;11.78;57.23;102010.66;4155598;28;19917;-58
2021/11/16 03:15:08;;;;;;;;;;;;;;;11.77;57.18;102010.69;4155661;28;19918;-58
2021/11/16 03:17:11;;;;;;;;;;;;;;;11.77;57.38;102015.94;4155498;28;20024;-58
2021/11/16 03:19:13;;;;;;;;;;;;;;;11.77;57.42;102011.53;4155573;28;19924;-57
2021/11/16 03:21:16;;;;;;;;;;;;;;;11.77;57.25;102010.69;4155648;28;20205;-58
2021/11/16 03:23:21;;;;;;;;;;;;;;;11.78;57.22;102015.06;4158664;28;19917;-58
2021/11/16 03:25:31;;;;;;;;;;;;;;;11.78;57.43;102012.44;4158853;28;19917;-58
2021/11/16 03:27:36;;;;;;;;;;;;;;;11.77;57.39;102014.19;4158689;28;20044;-57
2021/11/16 03:29:44;;;;;;;;;;;;;;;11.77;57.40;102011.53;4158779;28;20003;-57
2021/11/16 03:31:51;;;;;;;;;;;;;;;11.77;57.45;102008.91;4158780;28;19924;-58
2021/11/16 03:33:54;;;;;;;;;;;;;;;11.77;57.42;102015.94;4158639;28;19940;-58
2021/11/16 03:35:56;;;;;;;;;;;;;;;11.78;57.39;102012.44;4142365;28;19973;-57
2021/11/16 03:37:59;;;;;;;;;;;;;;;11.77;57.42;102003.63;4155068;28;19956;-58
2021/11/16 03:40:01;;;;;;;;;;;;;;;11.77;57.39;102005.41;4158669;28;19917;-58
2021/11/16 03:42:03;;;;;;;;;;;;;;;11.76;57.38;102012.47;4158621;28;19924;-58
2021/11/16 03:44:05;;;;;;;;;;;;;;;11.77;57.16;102019.44;4158491;28;19917;-58
2021/11/16 03:46:07;;;;;;;;;;;;;;;11.77;57.38;102015.94;4158413;28;19963;-59
2021/11/16 03:48:10;;;;;;;;;;;;;;;11.76;57.36;102017.72;4158309;28;20095;-58
2021/11/16 03:50:15;;;;;;;;;;;;;;;11.76;57.26;102016.84;4158391;28;20272;-58
2021/11/16 03:52:21;;;;;;;;;;;;;;;11.76;57.45;102020.38;4158525;28;19917;-59
2021/11/16 03:54:23;;;;;;;;;;;;;;;11.77;57.45;102018.59;4158238;28;19979;-58
2021/11/16 03:56:25;;;;;;;;;;;;;;;11.76;57.43;102023.00;4158319;28;19917;-58
2021/11/16 03:58:28;;;;;;;;;;;;;;;11.75;57.31;102023.00;4158250;28;19918;-58
2021/11/16 04:00:31;;;;;;;;;;;;;;;11.76;57.42;102017.72;4158410;28;19922;-58
2021/11/16 04:02:33;;;;;;;;;;;;;;;11.76;57.44;102023.00;4157184;28;19917;-58
2021/11/16 04:04:36;;;;;;;;;;;;;;;11.75;57.21;102018.63;4158070;28;19917;-59
2021/11/16 04:06:38;;;;;;;;;;;;;;;11.76;57.44;102016.84;4158308;28;19917;-59
2021/11/16 04:08:40;;;;;;;;;;;;;;;11.75;57.41;102012.47;4158026;28;19918;-58
2021/11/16 04:10:42;;;;;;;;;;;;;;;11.75;57.46;102012.47;4158150;28;19918;-59
2021/11/16 04:12:45;;;;;;;;;;;;;;;11.75;57.39;102008.09;4158230;28;19925;-58
2021/11/16 04:14:47;;;;;;;;;;;;;;;11.75;57.24;102021.25;4157837;28;19921;-59
2021/11/16 04:16:50;;;;;;;;;;;;;;;11.75;57.23;102023.00;4158125;28;19940;-59
2021/11/16 04:18:53;;;;;;;;;;;;;;;11.76;57.44;102019.47;4158040;28;19917;-58
2021/11/16 04:20:55;;;;;;;;;;;;;;;11.74;57.40;102014.25;4158154;28;19917;-59
2021/11/16 04:22:58;;;;;;;;;;;;;;;11.74;57.38;102021.31;4158129;28;19971;-59
2021/11/16 04:25:02;;;;;;;;;;;;;;;11.74;57.17;102016.88;4157771;28;19925;-59
2021/11/16 04:27:04;;;;;;;;;;;;;;;11.74;57.27;102013.41;4157847;28;19964;-58
2021/11/16 04:29:06;;;;;;;;;;;;;;;11.74;57.25;102014.25;4157739;28;19971;-59
2021/11/16 04:31:08;;;;;;;;;;;;;;;11.74;57.38;102016.88;4157769;28;19963;-58
2021/11/16 04:33:12;;;;;;;;;;;;;;;11.74;57.44;102013.41;4157388;28;19922;-58
2021/11/16 04:35:15;;;;;;;;;;;;;;;11.74;57.47;102016.88;4157529;28;20001;-58
2021/11/16 04:37:17;;;;;;;;;;;;;;;11.74;57.54;102008.97;4157691;28;19921;-58
2021/11/16 04:39:19;;;;;;;;;;;;;;;11.74;57.50;102010.75;4157782;28;19921;-58
2021/11/16 04:41:21;;;;;;;;;;;;;;;11.74;57.46;102010.75;4157668;28;19917;-58
2021/11/16 04:43:26;;;;;;;;;;;;;;;11.74;57.44;102010.75;4157691;28;19917;-59
2021/11/16 04:45:28;;;;;;;;;;;;;;;11.74;57.44;102010.75;4157400;28;20201;-58
2021/11/16 04:47:37;;;;;;;;;;;;;;;11.74;57.39;102016.03;4157413;28;20690;-58
2021/11/16 04:49:45;;;;;;;;;;;;;;;11.73;57.27;102012.50;4157102;28;19956;-58
2021/11/16 05:03:15;;;;;;;;;;;;;;;11.73;57.34;102023.06;4157258;28;19936;-58
2021/11/16 05:05:19;;;;;;;;;;;;;;;11.73;57.23;102016.94;4157334;28;20198;-59
2021/11/16 05:07:23;;;;;;;;;;;;;;;11.73;57.48;102027.47;4157044;28;20149;-58
2021/11/16 05:09:25;;;;;;;;;;;;;;;11.72;57.49;102021.31;4157363;28;19955;-58
2021/11/16 05:11:27;;;;;;;;;;;;;;;11.72;57.53;102018.69;4157020;28;19963;-58
2021/11/16 05:13:30;;;;;;;;;;;;;;;11.73;57.50;102022.19;4157176;28;19917;-58
2021/11/16 05:15:34;;;;;;;;;;;;;;;11.72;57.41;102016.03;4157049;28;19925;-58
2021/11/16 05:17:36;;;;;;;;;;;;;;;11.72;57.54;102012.56;4153836;28;19917;-58
2021/11/16 05:19:38;;;;;;;;;;;;;;;11.72;57.19;102018.69;4157024;28;20137;-58
2021/11/16 05:21:40;;;;;;;;;;;;;;;11.72;57.44;102023.09;4155947;28;19964;-58
2021/11/16 05:23:53;;;;;;;;;;;;;;;11.72;57.39;102015.19;4156927;28;19917;-59
2021/11/16 05:25:55;;;;;;;;;;;;;;;11.72;57.32;102010.78;4156926;28;19921;-58
2021/11/16 05:27:57;;;;;;;;;;;;;;;11.71;57.37;102011.66;4156901;28;19924;-58
2021/11/16 05:29:59;;;;;;;;;;;;;;;11.72;57.27;102017.81;4156921;28;19917;-57
2021/11/16 05:32:01;;;;;;;;;;;;;;;11.71;57.28;102027.47;4156835;28;19971;-58
2021/11/16 05:34:02;;;;;;;;;;;;;;;11.72;57.46;102028.38;4155710;28;20259;-58
2021/11/16 05:36:05;;;;;;;;;;;;;;;11.71;57.47;102024.84;4141044;28;19964;-58
2021/11/16 05:38:19;;;;;;;;;;;;;;;11.71;57.48;102024.84;4155868;28;20197;-58
2021/11/16 05:40:21;;;;;;;;;;;;;;;11.72;57.56;102028.38;4156646;28;19921;-58
2021/11/16 05:42:23;;;;;;;;;;;;;;;11.70;57.26;102031.03;4156512;28;19924;-59
2021/11/16 05:44:26;;;;;;;;;;;;;;;11.72;57.35;102025.72;4155977;28;19917;-59
2021/11/16 05:46:28;;;;;;;;;;;;;;;11.71;57.32;102029.25;4156586;28;19924;-59
2021/11/16 05:48:33;;;;;;;;;;;;;;;11.71;57.52;102026.63;4156742;28;19917;-59
2021/11/16 05:50:36;;;;;;;;;;;;;;;11.71;57.35;102027.47;4156705;28;19917;-58
2021/11/16 05:52:38;;;;;;;;;;;;;;;11.70;57.48;102031.03;4156528;28;19951;-59
2021/11/16 05:54:43;;;;;;;;;;;;;;;11.70;57.41;102032.78;4156790;28;20285;-59
2021/11/16 05:56:45;;;;;;;;;;;;;;;11.71;57.28;102035.38;4156604;28;19918;-61
2021/11/16 05:58:52;;;;;;;;;;;;;;;11.71;57.38;102034.53;4155262;28;19924;-59
2021/11/16 06:00:54;;;;;;;;;;;;;;;11.70;57.54;102027.50;4156581;28;19972;-59
2021/11/16 06:02:56;;;;;;;;;;;;;;;11.71;57.33;102032.75;4155885;28;20232;-59
2021/11/16 06:04:58;;;;;;;;;;;;;;;11.71;57.66;102038.03;4156445;28;20102;-59
2021/11/16 06:07:00;;;;;;;;;;;;;;;11.70;57.48;102033.66;4156212;28;20141;-59
2021/11/16 06:09:05;;;;;;;;;;;;;;;11.71;57.28;102034.53;4156031;28;19998;-58
2021/11/16 06:11:07;;;;;;;;;;;;;;;11.70;57.48;102036.31;4156346;28;19924;-58
2021/11/16 06:13:09;;;;;;;;;;;;;;;11.71;57.36;102037.16;4155933;28;19917;-58
2021/11/16 06:15:11;;;;;;;;;;;;;;;11.70;57.48;102041.56;4156310;28;20114;-58
2021/11/16 06:17:13;;;;;;;;;;;;;;;11.70;57.47;102033.66;4156179;28;19917;-58
2021/11/16 06:19:18;;;;;;;;;;;;;;;11.70;57.51;102031.03;4155878;28;20121;-61
2021/11/16 06:21:21;;;;;;;;;;;;;;;11.70;57.43;102035.41;4156007;28;20072;-58
2021/11/16 06:23:23;;;;;;;;;;;;;;;11.68;57.45;102038.09;4155969;28;20083;-58
2021/11/16 06:25:25;;;;;;;;;;;;;;;11.70;57.52;102040.69;4155946;28;19917;-59
2021/11/16 06:27:27;;;;;;;;;;;;;;;11.69;57.21;102037.19;4156134;28;20256;-59
2021/11/16 06:29:29;;;;;;;;;;;;;;;11.69;57.64;102038.94;4155755;28;19984;-59
2021/11/16 06:31:32;;;;;;;;;;;;;;;11.69;57.34;102039.84;4156001;28;19955;-58
2021/11/16 06:33:34;;;;;;;;;;;;;;;11.68;57.56;102046.00;4155793;28;19921;-58
2021/11/16 06:35:36;;;;;;;;;;;;;;;11.69;57.50;102052.13;4144819;28;19956;-58
2021/11/16 06:37:38;;;;;;;;;;;;;;;11.69;57.56;102045.09;4155885;28;19921;-58
2021/11/16 06:39:40;;;;;;;;;;;;;;;11.68;57.54;102046.00;4155664;28;20083;-58
2021/11/16 06:41:42;;;;;;;;;;;;;;;11.68;57.34;102043.38;4155820;28;19917;-58
2021/11/16 06:43:44;;;;;;;;;;;;;;;11.67;57.47;102050.38;4155665;28;19918;-58
2021/11/16 06:45:50;;;;;;;;;;;;;;;11.67;57.59;102049.53;4155773;28;20288;-59
2021/11/16 06:47:52;;;;;;;;;;;;;;;11.67;57.38;102049.53;4155926;28;19917;-58
2021/11/16 06:49:54;;;;;;;;;;;;;;;11.67;57.38;102045.09;4155541;28;19933;-59
2021/11/16 06:51:57;;;;;;;;;;;;;;;11.68;57.29;102051.28;4156015;28;19921;-59
2021/11/16 06:53:59;;;;;;;;;;;;;;;11.67;57.42;102047.75;4155596;28;20186;-59
2021/11/16 06:56:04;;;;;;;;;;;;;;;11.66;57.27;102048.66;4155522;28;19917;-59
2021/11/16 06:58:06;;;;;;;;;;;;;;;11.67;57.36;102047.75;4155808;28;19917;-59
2021/11/16 07:00:09;;;;;;;;;;;;;;;11.67;57.37;102054.78;4155409;28;19917;-60
2021/11/16 07:02:11;;;;;;;;;;;;;;;11.65;57.41;102041.66;4155719;28;19964;-58
2021/11/16 07:04:13;;;;;;;;;;;;;;;11.66;57.58;102047.78;4155346;28;19929;-59
2021/11/16 07:06:16;;;;;;;;;;;;;;;11.66;57.47;102042.50;4155799;28;19917;-59
2021/11/16 07:08:29;;;;;;;;;;;;;;;11.66;57.36;102048.66;4155677;28;19917;-59
2021/11/16 07:10:31;;;;;;;;;;;;;;;11.66;57.64;102047.78;4155400;28;19917;-59
2021/11/16 07:12:34;;;;;;;;;;;;;;;11.66;57.60;102053.06;4154206;28;19931;-58
2021/11/16 07:14:37;;;;;;;;;;;;;;;11.66;57.48;102051.31;4153350;28;20110;-59
2021/11/16 07:16:43;;;;;;;;;;;;;;;11.65;57.84;102052.19;4155196;28;19921;-61
2021/11/16 07:18:50;;;;;;;;;;;;;;;11.67;58.02;102060.06;4153777;28;19917;-62
2021/11/16 07:21:01;;;;;;;;;;;;;;;11.68;58.06;102053.91;4155092;28;19917;-60
2021/11/16 07:23:09;;;;;;;;;;;;;;;11.69;58.04;102047.75;4149834;28;19956;-61
2021/11/16 07:25:13;;;;;;;;;;;;;;;11.71;58.04;102053.81;4153371;28;19929;-60
2021/11/16 07:27:21;;;;;;;;;;;;;;;11.72;58.16;102055.56;4152826;28;19918;-60
2021/11/16 07:29:36;;;;;;;;;;;;;;;11.73;58.08;102054.69;4155468;28;19980;-59
2021/11/16 07:31:41;;;;;;;;;;;;;;;11.74;58.05;102048.50;4155261;28;19980;-60
2021/11/16 07:33:44;;;;;;;;;;;;;;;11.77;57.95;102055.50;4155293;28;19999;-60
2021/11/16 07:35:46;;;;;;;;;;;;;;;11.77;57.92;102052.84;4155099;28;20118;-60
2021/11/16 07:37:48;;;;;;;;;;;;;;;11.78;57.64;102057.22;4155245;28;19963;-62
2021/11/16 07:39:55;;;;;;;;;;;;;;;11.77;57.67;102051.06;4155494;28;19917;-61
2021/11/16 07:42:05;;;;;;;;;;;;;;;11.78;57.88;102044.91;4154565;28;19932;-60
2021/11/16 07:44:12;;;;;;;;;;;;;;;11.80;57.74;102051.03;4153534;28;19921;-61
2021/11/16 07:46:16;;;;;;;;;;;;;;;11.80;57.64;102056.31;4153300;28;19925;-59
2021/11/16 07:48:23;;;;;;;;;;;;;;;11.81;57.47;102050.13;4154663;28;19917;-60
2021/11/16 07:50:33;;;;;;;;;;;;;;;11.83;57.52;102044.81;4154484;28;19925;-60
2021/11/16 07:52:37;;;;;;;;;;;;;;;11.83;57.54;102042.19;4152498;28;19925;-59
2021/11/16 07:54:39;;;;;;;;;;;;;;;11.84;57.95;102038.66;4154228;28;19968;-60
2021/11/16 07:56:45;;;;;;;;;;;;;;;11.85;57.46;102040.41;4154345;28;20113;-60
2021/11/16 07:59:02;;;;;;;;;;;;;;;11.87;57.87;102041.25;4154652;28;19976;-60
2021/11/16 08:01:09;;;;;;;;;;;;;;;11.90;57.62;102045.59;4153820;28;19917;-60
2021/11/16 08:03:19;;;;;;;;;;;;;;;11.92;57.73;102047.28;4154351;28;19979;-60
2021/11/16 08:08:05;;;;;;;;;;;;;;;11.98;57.88;102056.84;4156964;28;19921;-60
2021/11/16 08:10:15;;;;;;;;;;;;;;;11.99;56.98;102058.59;4141477;28;19947;-59
2021/11/16 08:14:21;;;;;;;;;;;;;;;12.03;57.26;102064.69;4157283;28;19956;-59
2021/11/16 08:16:24;;;;;;;;;;;;;;;12.04;57.34;102056.75;4155837;28;19918;-60
2021/11/16 08:18:34;;;;;;;;;;;;;;;12.06;57.33;102062.84;4157393;28;19918;-60
2021/11/16 08:20:37;;;;;;;;;;;;;;;12.09;57.56;102061.91;4157379;28;20275;-60
2021/11/16 08:22:39;;;;;;;;;;;;;;;12.11;57.54;102058.38;4155063;28;19967;-58
2021/11/16 08:24:46;;;;;;;;;;;;;;;12.14;57.22;102052.16;4156455;28;20105;-60
2021/11/16 08:26:51;;;;;;;;;;;;;;;12.16;56.44;102050.34;4156728;28;20327;-61
2021/11/16 08:29:00;;;;;;;;;;;;;;;12.18;56.10;102043.28;4153646;28;19936;-59
2021/11/16 08:31:02;;;;;;;;;;;;;;;12.22;55.58;102042.31;4157015;28;19949;-60
2021/11/16 08:33:06;;;;;;;;;;;;;;;12.24;55.51;102043.16;4155083;28;19945;-60
2021/11/16 08:35:09;;;;;;;;;;;;;;;12.28;55.37;102047.47;4156049;28;20020;-59
2021/11/16 08:37:17;;;;;;;;;;;;;;;12.30;54.89;102050.94;4156304;28;19925;-62
2021/11/16 08:39:21;;;;;;;;;;;;;;;12.30;55.61;102048.28;4154954;28;19925;-61
2021/11/16 08:41:29;;;;;;;;;;;;;;;12.31;55.98;102038.63;4153894;28;19925;-60
2021/11/16 08:43:38;;;;;;;;;;;;;;;12.33;55.39;102039.44;4149601;28;19963;-59
2021/11/16 08:45:50;;;;;;;;;;;;;;;12.36;54.62;102033.22;4156892;28;19932;-60
2021/11/16 08:47:58;;;;;;;;;;;;;;;12.38;54.50;102034.94;4156862;28;19925;-60
2021/11/16 08:50:02;;;;;;;;;;;;;;;12.41;54.27;102031.38;4156935;28;20206;-62
2021/11/16 08:52:14;;;;;;;;;;;;;;;12.42;54.60;102033.97;4157016;28;19941;-62
2021/11/16 08:54:35;;;;;;;;;;;;;;;12.43;55.45;102032.19;4156451;28;20260;-60
2021/11/16 08:56:40;;;;;;;;;;;;;;;12.44;55.57;102040.09;4155721;28;19948;-61
2021/11/16 08:58:53;;;;;;;;;;;;;;;12.45;55.42;102036.56;4156398;28;20111;-62
2021/11/16 09:00:57;;;;;;;;;;;;;;;12.48;55.44;102040.00;4156556;28;19952;-62
2021/11/16 09:03:06;;;;;;;;;;;;;;;12.49;55.58;102041.75;4156403;28;19921;-59
2021/11/16 09:05:12;;;;;;;;;;;;;;;12.49;55.34;102037.34;4156247;28;19980;-61
2021/11/16 09:07:30;;;;;;;;;;;;;;;12.52;55.45;102036.41;4156372;28;19925;-61
2021/11/16 09:09:49;;;;;;;;;;;;;;;12.53;55.27;102039.00;4156408;28;19925;-61
2021/11/16 09:11:59;;;;;;;;;;;;;;;12.56;55.23;102035.44;4155728;28;20012;-60
2021/11/16 09:14:09;;;;;;;;;;;;;;;12.59;55.39;102025.66;4155901;28;19988;-60
2021/11/16 09:16:16;;;;;;;;;;;;;;;12.60;55.21;102022.13;4156249;28;19976;-59
2021/11/16 09:18:20;;;;;;;;;;;;;;;12.61;54.54;102023.88;4156296;28;20158;-61
2021/11/16 09:20:24;;;;;;;;;;;;;;;12.64;54.57;102015.00;4154938;28;19933;-61
2021/11/16 09:22:26;;;;;;;;;;;;;;;12.67;54.35;102014.94;4139823;28;19921;-62
2021/11/16 09:24:31;;;;;;;;;;;;;;;12.70;54.32;102014.00;4154676;28;21431;-61
2021/11/16 09:26:51;;;;;;;;;;;;;;;12.73;54.25;102019.19;4155942;28;19940;-62
2021/11/16 09:28:56;;;;;;;;;;;;;;;12.78;53.90;102017.31;4154200;28;20195;-60
2021/11/16 09:30:59;;;;;;;;;;;;;;;12.81;54.21;102013.72;4154896;28;19959;-61
2021/11/16 09:33:11;;;;;;;;;;;;;;;12.83;54.45;102017.22;4154862;28;19948;-61
2021/11/16 09:35:13;;;;;;;;;;;;;;;12.83;54.85;102009.28;4155223;28;19917;-60
2021/11/16 09:37:19;;;;;;;;;;;;;;;12.84;54.53;102014.53;4156106;28;19941;-60
2021/11/16 09:39:40;;;;;;;;;;;;;;;12.86;54.07;102002.16;4156250;28;20295;-62
2021/11/16 09:41:44;;;;;;;;;;;;;;;12.88;54.08;102000.34;4156109;28;20395;-60
2021/11/16 09:43:54;;;;;;;;;;;;;;;12.89;54.10;102001.22;4155801;28;19945;-60
2021/11/16 09:46:02;;;;;;;;;;;;;;;12.91;53.81;102002.06;4154275;28;20232;-61
2021/11/16 09:48:10;;;;;;;;;;;;;;;12.92;53.68;102001.16;4152619;28;19928;-60
2021/11/16 09:50:20;;;;;;;;;;;;;;;12.93;53.46;102003.75;4150036;28;19940;-61
2021/11/16 09:52:25;;;;;;;;;;;;;;;12.96;53.63;102009.88;4143608;28;19925;-60
2021/11/16 09:54:27;;;;;;;;;;;;;;;12.95;53.33;102006.34;4155202;28;19921;-60
2021/11/16 09:56:30;;;;;;;;;;;;;;;12.96;53.44;102007.22;4155426;28;19977;-60
2021/11/16 09:58:37;;;;;;;;;;;;;;;12.98;53.45;102005.38;4155441;28;19917;-61
2021/11/16 10:00:41;;;;;;;;;;;;;;;12.99;53.53;102012.41;4155183;28;20221;-60
2021/11/16 10:02:48;;;;;;;;;;;;;;;13.00;53.91;102008.88;4155393;28;19929;-59
2021/11/16 10:04:51;;;;;;;;;;;;;;;13.02;53.90;102012.34;4153565;28;19939;-60
2021/11/16 10:06:53;;;;;;;;;;;;;;;13.01;53.79;102016.75;4151201;28;20220;-61
2021/11/16 10:08:56;;;;;;;;;;;;;;;13.01;53.44;102014.09;4150308;28;19928;-61
2021/11/16 10:10:59;;;;;;;;;;;;;;;13.01;53.31;102015.91;4144156;28;19929;-62
2021/11/16 10:13:03;;;;;;;;;;;;;;;13.03;53.52;102025.50;4153753;28;20015;-60
2021/11/16 10:15:05;;;;;;;;;;;;;;;13.05;53.49;102022.81;4136790;28;19918;-63
2021/11/16 10:17:07;;;;;;;;;;;;;;;13.06;53.58;102008.72;4152260;28;19939;-60
2021/11/16 10:19:16;;;;;;;;;;;;;;;13.06;53.57;102011.34;4146934;28;20451;-60
2021/11/16 10:21:18;;;;;;;;;;;;;;;13.06;53.56;102011.34;4140362;28;19929;-61
2021/11/16 10:23:31;;;;;;;;;;;;;;;13.05;53.56;102010.50;4144139;28;19983;-61
2021/11/16 10:25:33;;;;;;;;;;;;;;;13.06;53.57;102011.34;4144770;28;19975;-61
2021/11/16 10:27:36;;;;;;;;;;;;;;;13.06;53.58;102001.69;4145735;28;19921;-60
2021/11/16 10:29:39;;;;;;;;;;;;;;;13.08;53.30;102007.75;4144167;28;19971;-62
2021/11/16 10:31:41;;;;;;;;;;;;;;;13.09;53.16;102001.59;4145081;28;19921;-62
2021/11/16 10:33:46;;;;;;;;;;;;;;;13.10;52.76;102005.97;4146277;28;19963;-62
2021/11/16 10:35:48;;;;;;;;;;;;;;;13.13;53.25;102006.81;4144738;28;19929;-61
2021/11/16 10:37:52;;;;;;;;;;;;;;;13.14;53.43;102008.53;4148922;28;19966;-61
2021/11/16 10:40:07;;;;;;;;;;;;;;;13.13;53.14;102012.94;4146901;28;20384;-60
2021/11/16 10:42:16;;;;;;;;;;;;;;;13.13;53.35;102006.81;4147645;28;19944;-60
2021/11/16 10:44:22;;;;;;;;;;;;;;;13.13;53.52;102009.44;4161812;28;20087;-62
2021/11/16 10:46:29;;;;;;;;;;;;;;;13.12;53.64;102011.19;4146929;28;19975;-60
2021/11/16 10:48:31;;;;;;;;;;;;;;;13.14;53.67;102008.53;4145839;28;19925;-60
2021/11/16 10:50:34;;;;;;;;;;;;;;;13.14;53.87;102013.81;4145722;28;20353;-60
2021/11/16 10:52:38;;;;;;;;;;;;;;;13.14;54.13;102014.69;4161685;28;19971;-61
2021/11/16 10:55:00;;;;;;;;;;;;;;;13.15;54.72;102007.59;4146514;28;19928;-61
2021/11/16 10:57:05;;;;;;;;;;;;;;;13.16;54.47;102012.88;4145587;28;19936;-61